Time;durP1;ratioP1;P1;durP2;ratioP2;P2;SDS_P1;SDS_P2;PMS_P1;PMS_P2;Temp;Humidity;BMP_temperature;BMP_pressure;BME280_temperature;BME280_humidity;BME280_pressure;Samples;Min_cycle;Max_cycle;Signal;HPM_P1;HPM_P2
2022/08/19 00:00:29;;;;;;;8.73;3.63;;;14.70;99.90;;;;;;4964682;28;20211;-84
2022/08/19 00:02:55;;;;;;;9.70;4.33;;;14.80;99.90;;;;;;4996338;28;20176;-85
2022/08/19 00:05:22;;;;;;;5.10;2.60;;;14.70;99.90;;;;;;4965133;28;20168;-85
2022/08/19 00:07:48;;;;;;;5.53;3.33;;;14.50;99.90;;;;;;4964065;28;20219;-85
2022/08/19 00:10:15;;;;;;;6.23;3.23;;;14.30;99.90;;;;;;4980556;28;20255;-85
2022/08/19 00:12:42;;;;;;;5.83;3.50;;;14.30;99.90;;;;;;4979992;28;20612;-84
2022/08/19 00:15:12;;;;;;;6.10;3.23;;;14.30;99.90;;;;;;4993205;28;20239;-85
2022/08/19 00:17:43;;;;;;;7.00;4.03;;;14.30;99.90;;;;;;4981077;28;20186;-85
2022/08/19 00:20:12;;;;;;;4.83;3.90;;;14.40;99.90;;;;;;4987139;28;20215;-85
2022/08/19 00:22:38;;;;;;;5.40;3.30;;;14.30;99.90;;;;;;4976673;28;20216;-85
2022/08/19 00:25:05;;;;;;;5.83;3.60;;;14.60;99.90;;;;;;4945158;28;20695;-85
2022/08/19 00:27:31;;;;;;;8.70;4.50;;;14.70;99.90;;;;;;4944806;28;20243;-84
2022/08/19 00:29:58;;;;;;;12.10;4.60;;;14.80;99.90;;;;;;4950029;28;20211;-84
2022/08/19 00:32:25;;;;;;;6.93;4.00;;;14.80;99.90;;;;;;4981016;28;20557;-85
2022/08/19 00:34:52;;;;;;;5.60;3.13;;;14.90;99.90;;;;;;4979850;28;20219;-85
2022/08/19 00:37:22;;;;;;;5.67;3.43;;;14.90;99.90;;;;;;4967333;28;20295;-85
2022/08/19 00:39:50;;;;;;;8.77;3.60;;;15.00;99.90;;;;;;4978401;28;20208;-85
2022/08/19 00:42:17;;;;;;;10.40;4.03;;;14.90;99.90;;;;;;4964307;28;20215;-85
2022/08/19 00:44:43;;;;;;;6.47;3.27;;;14.90;99.90;;;;;;5004263;28;20654;-85
2022/08/19 00:47:11;;;;;;;10.07;4.17;;;14.80;99.90;;;;;;4982739;28;20263;-85
2022/08/19 00:49:45;;;;;;;7.90;4.03;;;14.90;99.90;;;;;;4976666;28;20231;-85
2022/08/19 00:52:24;;;;;;;7.27;4.63;;;14.90;99.90;;;;;;4986675;28;20223;-85
2022/08/19 00:54:52;;;;;;;8.13;3.83;;;15.00;99.90;;;;;;4996149;28;20261;-85
2022/08/19 00:57:24;;;;;;;6.37;3.60;;;15.00;99.90;;;;;;4992639;28;20598;-85
2022/08/19 00:59:53;;;;;;;6.13;3.90;;;15.00;99.90;;;;;;4993044;28;20590;-85
2022/08/19 01:02:19;;;;;;;10.70;4.17;;;15.00;99.90;;;;;;4992706;28;20235;-85
2022/08/19 01:04:45;;;;;;;8.20;4.77;;;15.00;99.90;;;;;;4992401;28;20629;-85
2022/08/19 01:07:11;;;;;;;6.03;3.73;;;15.00;99.90;;;;;;4960347;28;20300;-86
2022/08/19 01:09:37;;;;;;;6.10;3.77;;;14.90;99.90;;;;;;4960301;28;20224;-85
2022/08/19 01:12:03;;;;;;;5.70;3.57;;;14.80;99.90;;;;;;4970454;28;20188;-85
2022/08/19 01:14:30;;;;;;;8.30;4.40;;;14.70;99.90;;;;;;5005055;28;20670;-85
2022/08/19 01:16:59;;;;;;;11.87;4.07;;;14.70;99.90;;;;;;5011839;28;20683;-85
2022/08/19 01:19:35;;;;;;;5.47;2.93;;;14.70;99.90;;;;;;5012146;28;20211;-85
2022/08/19 01:22:23;;;;;;;5.17;3.37;;;14.70;99.90;;;;;;5008449;28;20310;-85
2022/08/19 01:24:51;;;;;;;5.03;4.10;;;14.70;99.90;;;;;;4974817;28;20234;-86
2022/08/19 01:27:17;;;;;;;5.70;2.80;;;14.70;99.90;;;;;;5011666;28;20215;-85
2022/08/19 01:29:44;;;;;;;4.80;3.30;;;14.70;99.90;;;;;;5012370;28;20265;-86
2022/08/19 01:32:13;;;;;;;4.77;2.90;;;14.70;99.90;;;;;;4983879;28;20311;-85
2022/08/19 01:34:39;;;;;;;5.70;3.20;;;14.60;99.90;;;;;;4996489;28;20218;-85
2022/08/19 01:37:11;;;;;;;5.97;3.03;;;14.60;99.90;;;;;;4995312;28;20680;-85
2022/08/19 01:39:39;;;;;;;5.00;3.47;;;14.60;99.90;;;;;;4992323;28;20612;-85
2022/08/19 01:42:07;;;;;;;4.60;2.43;;;14.60;99.90;;;;;;4992198;28;20180;-85
2022/08/19 01:44:33;;;;;;;3.87;2.40;;;14.60;99.90;;;;;;4981282;28;20227;-85
2022/08/19 01:46:59;;;;;;;3.10;2.10;;;14.40;99.90;;;;;;5011315;28;20250;-84
2022/08/19 01:49:26;;;;;;;4.17;2.30;;;14.20;99.90;;;;;;4979112;28;20269;-85
2022/08/19 01:51:53;;;;;;;5.53;3.03;;;13.90;99.90;;;;;;4979285;28;20281;-84
2022/08/19 01:54:20;;;;;;;7.63;4.57;;;14.00;99.90;;;;;;4995547;28;20608;-85
2022/08/19 01:56:46;;;;;;;7.47;4.37;;;14.40;99.90;;;;;;5012128;28;20179;-85
2022/08/19 01:59:16;;;;;;;14.27;4.40;;;14.60;99.90;;;;;;4994803;28;20215;-84
2022/08/19 02:01:41;;;;;;;8.77;4.50;;;14.60;99.90;;;;;;5011399;28;20215;-84
2022/08/19 02:04:08;;;;;;;4.93;3.17;;;14.50;99.90;;;;;;4973712;28;20574;-84
2022/08/19 02:06:34;;;;;;;2.97;1.67;;;14.40;99.90;;;;;;4991908;28;20212;-86
2022/08/19 02:09:01;;;;;;;4.37;2.90;;;14.30;99.90;;;;;;5011214;28;20203;-86
2022/08/19 02:11:31;;;;;;;2.67;2.23;;;14.20;99.90;;;;;;5012154;28;20258;-85
2022/08/19 02:13:57;;;;;;;2.67;1.57;;;14.10;99.90;;;;;;5011534;28;20211;-86
2022/08/19 02:16:24;;;;;;;4.93;3.07;;;13.90;99.90;;;;;;5008057;28;20303;-86
2022/08/19 02:18:50;;;;;;;4.03;2.37;;;14.00;99.90;;;;;;5003935;28;20299;-85
2022/08/19 02:21:21;;;;;;;8.10;2.77;;;14.10;99.90;;;;;;5011630;28;20213;-85
2022/08/19 02:23:47;;;;;;;3.07;1.53;;;14.10;99.90;;;;;;5011625;28;20254;-87
2022/08/19 02:26:14;;;;;;;4.13;2.33;;;14.10;99.90;;;;;;4995010;28;20261;-86
2022/08/19 02:28:42;;;;;;;2.73;2.33;;;14.00;99.90;;;;;;4990706;28;20220;-85
2022/08/19 02:31:12;;;;;;;5.00;2.43;;;14.00;99.90;;;;;;4991627;28;20212;-85
2022/08/19 02:33:38;;;;;;;5.50;3.20;;;14.10;99.90;;;;;;4975645;28;20212;-85
2022/08/19 02:36:06;;;;;;;7.17;3.83;;;14.20;99.90;;;;;;4976739;28;20539;-85
2022/08/19 02:38:32;;;;;;;23.23;5.20;;;14.50;99.90;;;;;;5000710;28;20246;-85
2022/08/19 02:41:01;;;;;;;7.07;4.13;;;14.60;99.90;;;;;;4983110;28;20207;-85
2022/08/19 02:43:29;;;;;;;7.97;4.27;;;14.80;99.90;;;;;;5014415;28;20679;-84
2022/08/19 02:45:55;;;;;;;12.60;5.20;;;14.90;99.90;;;;;;4998027;28;20250;-84
2022/08/19 02:48:23;;;;;;;8.30;4.93;;;15.00;99.90;;;;;;4981954;28;20318;-85
2022/08/19 02:50:54;;;;;;;7.97;4.57;;;15.00;99.90;;;;;;4978862;28;20544;-88
2022/08/19 02:53:26;;;;;;;7.80;4.43;;;15.00;99.90;;;;;;4996274;28;20977;-85
2022/08/19 02:55:52;;;;;;;8.33;3.87;;;15.00;99.90;;;;;;4997960;28;20221;-84
2022/08/19 02:58:19;;;;;;;8.53;4.60;;;15.00;99.90;;;;;;4960186;28;20623;-84
2022/08/19 03:00:49;;;;;;;5.50;4.13;;;14.90;99.90;;;;;;4995821;28;20211;-84
2022/08/19 03:03:15;;;;;;;6.47;4.50;;;14.90;99.90;;;;;;4997731;28;20231;-84
2022/08/19 03:05:41;;;;;;;8.37;4.30;;;14.90;99.90;;;;;;4982309;28;20266;-84
2022/08/19 03:08:10;;;;;;;7.67;5.37;;;14.90;99.90;;;;;;4965321;28;20715;-84
2022/08/19 03:10:49;;;;;;;9.70;3.93;;;14.90;99.90;;;;;;4981550;28;20223;-84
2022/08/19 03:13:17;;;;;;;8.33;4.40;;;14.90;99.90;;;;;;4997800;28;20569;-84
2022/08/19 03:15:46;;;;;;;6.20;4.03;;;14.90;99.90;;;;;;4997584;28;20222;-84
2022/08/19 03:18:12;;;;;;;12.13;5.10;;;14.90;99.90;;;;;;4997630;28;20620;-84
2022/08/19 03:20:44;;;;;;;7.53;4.07;;;14.80;99.90;;;;;;4981237;28;20522;-84
2022/08/19 03:23:12;;;;;;;8.67;5.47;;;14.80;99.90;;;;;;4981315;28;20249;-84
2022/08/19 03:25:46;;;;;;;10.03;5.03;;;14.80;99.90;;;;;;4997503;28;20676;-84
2022/08/19 03:28:14;;;;;;;6.93;3.83;;;14.70;99.90;;;;;;4987919;28;20643;-84
2022/08/19 03:30:41;;;;;;;8.93;5.50;;;14.90;99.90;;;;;;4961996;28;20208;-84
2022/08/19 03:33:08;;;;;;;5.97;3.97;;;14.90;99.90;;;;;;4993825;28;20168;-84
2022/08/19 03:35:37;;;;;;;7.87;4.27;;;14.90;99.90;;;;;;4970277;28;20184;-85
2022/08/19 03:38:04;;;;;;;8.23;4.73;;;14.90;99.90;;;;;;4961851;28;21008;-84
2022/08/19 03:40:34;;;;;;;7.20;3.70;;;14.90;99.90;;;;;;4945713;28;20267;-85
2022/08/19 03:43:01;;;;;;;7.80;4.80;;;14.90;99.90;;;;;;4963994;28;20759;-84
2022/08/19 03:45:27;;;;;;;8.43;4.37;;;14.90;99.90;;;;;;4994384;28;20782;-84
2022/08/19 03:47:53;;;;;;;8.80;4.23;;;14.80;99.90;;;;;;4980395;28;20242;-85
2022/08/19 03:50:19;;;;;;;8.57;5.30;;;14.90;99.90;;;;;;4981295;28;20211;-85
2022/08/19 03:52:51;;;;;;;8.00;4.83;;;14.90;99.90;;;;;;4980833;28;20211;-84
2022/08/19 03:55:18;;;;;;;9.10;4.53;;;14.90;99.90;;;;;;4996722;28;20226;-84
2022/08/19 03:57:45;;;;;;;11.67;4.40;;;15.00;99.90;;;;;;5013107;28;20211;-84
2022/08/19 04:00:12;;;;;;;9.27;4.53;;;15.00;99.90;;;;;;4996853;28;20179;-84
2022/08/19 04:02:38;;;;;;;10.30;5.30;;;15.00;99.90;;;;;;4997397;28;20179;-84
2022/08/19 04:05:04;;;;;;;10.53;6.00;;;15.00;99.90;;;;;;4963030;28;20680;-84
2022/08/19 04:07:30;;;;;;;8.37;5.43;;;15.00;99.90;;;;;;4961171;28;20223;-84
2022/08/19 04:09:56;;;;;;;8.57;5.33;;;15.00;99.90;;;;;;4961131;28;20212;-84
2022/08/19 04:12:22;;;;;;;7.10;4.00;;;15.00;99.90;;;;;;4977062;28;20220;-84
2022/08/19 04:14:47;;;;;;;8.23;4.50;;;15.00;99.90;;;;;;4977635;28;20188;-84
2022/08/19 04:17:13;;;;;;;7.73;4.57;;;15.00;99.90;;;;;;4960978;28;20220;-84
2022/08/19 04:19:39;;;;;;;9.43;4.40;;;15.00;99.90;;;;;;4977187;28;20226;-85
2022/08/19 04:22:06;;;;;;;9.17;4.37;;;15.10;99.90;;;;;;4996209;28;20302;-84
2022/08/19 04:24:34;;;;;;;10.50;3.83;;;15.10;99.90;;;;;;5013829;28;20215;-85
2022/08/19 04:27:01;;;;;;;7.27;4.70;;;15.10;99.90;;;;;;4980299;28;20640;-85
2022/08/19 04:29:27;;;;;;;7.87;4.47;;;15.10;99.90;;;;;;4997122;28;20543;-84
2022/08/19 04:31:55;;;;;;;7.23;4.77;;;15.10;99.90;;;;;;5004168;28;20219;-86
2022/08/19 04:34:23;;;;;;;9.87;5.30;;;15.20;99.90;;;;;;4976572;28;20226;-85
2022/08/19 04:36:50;;;;;;;10.73;5.07;;;15.20;99.90;;;;;;4992586;28;20224;-85
2022/08/19 04:39:20;;;;;;;9.00;4.70;;;15.20;99.90;;;;;;4976837;28;20608;-85
2022/08/19 04:44:35;;;;;;;13.13;3.77;;;15.30;99.90;;;;;;5012501;28;20330;-84
2022/08/19 04:47:05;;;;;;;10.97;4.70;;;15.40;99.90;;;;;;4976372;28;20215;-85
2022/08/19 04:49:31;;;;;;;9.60;5.07;;;15.50;99.90;;;;;;4976954;28;20239;-85
2022/08/19 04:51:57;;;;;;;8.17;5.03;;;15.60;99.90;;;;;;4976309;28;20358;-85
2022/08/19 04:54:24;;;;;;;11.37;5.33;;;15.60;99.90;;;;;;4990066;28;20254;-85
2022/08/19 04:56:52;;;;;;;8.27;4.63;;;15.60;99.90;;;;;;4993385;28;20640;-85
2022/08/19 04:59:19;;;;;;;11.33;6.47;;;15.70;99.90;;;;;;4992087;28;20360;-84
2022/08/19 05:01:49;;;;;;;11.27;7.17;;;15.70;99.90;;;;;;5008411;28;20696;-85
2022/08/19 05:04:19;;;;;;;10.97;6.80;;;15.70;99.90;;;;;;4976490;28;20255;-84
2022/08/19 05:06:47;;;;;;;10.67;6.03;;;15.70;99.90;;;;;;4976859;28;20728;-84
2022/08/19 05:09:14;;;;;;;13.30;6.63;;;15.80;99.90;;;;;;4992467;28;20254;-84
2022/08/19 05:11:39;;;;;;;11.67;5.23;;;16.00;99.90;;;;;;4997268;28;20593;-84
2022/08/19 05:14:10;;;;;;;10.50;5.17;;;16.10;99.90;;;;;;4993329;28;20219;-84
2022/08/19 05:16:36;;;;;;;10.70;6.80;;;16.10;99.90;;;;;;4992192;28;20665;-85
2022/08/19 05:24:33;;;;;;;14.40;6.63;;;16.30;99.90;;;;;;4997988;28;20223;-84
2022/08/19 05:27:02;;;;;;;12.73;5.90;;;16.40;99.90;;;;;;5012671;28;20250;-85
2022/08/19 05:29:31;;;;;;;13.27;6.17;;;16.50;99.90;;;;;;4980293;28;20667;-85
2022/08/19 05:31:58;;;;;;;14.67;6.07;;;16.60;99.90;;;;;;5011595;28;20254;-88
2022/08/19 05:34:25;;;;;;;13.57;5.90;;;16.80;99.90;;;;;;4995598;28;20219;-84
2022/08/19 05:36:56;;;;;;;11.17;6.17;;;17.00;99.90;;;;;;4995303;28;20292;-85
2022/08/19 05:39:25;;;;;;;14.77;7.27;;;17.10;99.90;;;;;;5011425;28;20211;-84
2022/08/19 05:41:57;;;;;;;11.93;6.07;;;17.30;99.90;;;;;;5012197;28;20624;-84
2022/08/19 05:44:24;;;;;;;14.20;6.80;;;17.60;99.90;;;;;;5011367;28;20263;-85
2022/08/19 05:46:53;;;;;;;11.37;6.13;;;18.20;99.90;;;;;;4995047;28;20306;-85
2022/08/19 05:49:22;;;;;;;17.43;8.83;;;19.10;99.90;;;;;;4994998;28;20226;-85
2022/08/19 05:51:48;;;;;;;20.43;8.27;;;20.50;99.90;;;;;;5004459;28;20307;-86
2022/08/19 05:54:14;;;;;;;13.93;7.73;;;22.10;99.90;;;;;;4978698;28;20221;-85
2022/08/19 05:56:41;;;;;;;10.93;5.97;;;23.90;99.90;;;;;;4979380;28;20278;-85
2022/08/19 05:59:11;;;;;;;8.97;5.87;;;25.70;99.90;;;;;;5011223;28;20223;-85
2022/08/19 06:01:42;;;;;;;9.90;5.67;;;26.60;99.90;;;;;;5012250;28;20219;-85
2022/08/19 06:04:08;;;;;;;11.80;5.57;;;28.00;99.90;;;;;;4991342;28;20647;-85
2022/08/19 06:06:35;;;;;;;11.77;5.93;;;28.30;99.90;;;;;;4994331;28;20212;-85
2022/08/19 06:09:06;;;;;;;10.30;6.05;;;29.60;99.90;;;;;;4991884;28;20251;-85
2022/08/19 06:11:36;;;;;;;10.25;5.22;;;30.00;99.90;;;;;;4996054;28;20168;-86
2022/08/19 06:14:07;;;;;;;8.15;4.97;;;30.30;99.90;;;;;;5014196;28;20698;-86
2022/08/19 06:16:38;;;;;;;8.20;5.68;;;29.50;99.90;;;;;;4995492;28;20208;-85
2022/08/19 06:19:10;;;;;;;9.95;5.05;;;30.30;99.90;;;;;;4996692;28;20556;-87
2022/08/19 06:21:38;;;;;;;7.53;5.05;;;30.60;99.90;;;;;;5013806;28;20214;-86
2022/08/19 06:24:10;;;;;;;9.18;4.75;;;30.40;99.90;;;;;;5015123;28;20180;-84
2022/08/19 06:26:39;;;;;;;10.25;5.22;;;29.60;99.90;;;;;;5008422;28;20656;-85
2022/08/19 06:29:07;;;;;;;9.13;5.68;;;29.20;99.90;;;;;;4994794;28;20234;-86
2022/08/19 06:31:34;;;;;;;8.23;5.03;;;29.20;99.90;;;;;;4998031;28;20736;-85
2022/08/19 06:34:02;;;;;;;7.88;4.90;;;30.30;99.90;;;;;;5014933;28;20242;-88
2022/08/19 06:36:40;;;;;;;8.82;4.55;;;30.60;99.90;;;;;;5013784;28;20203;-86
2022/08/19 06:39:12;;;;;;;7.30;5.15;;;31.40;99.90;;;;;;5003243;28;20179;-85
2022/08/19 06:41:41;;;;;;;9.00;5.63;;;30.30;99.90;;;;;;5014436;28;20240;-86
2022/08/19 06:44:07;;;;;;;7.47;4.93;;;29.70;99.90;;;;;;5014115;28;20227;-86
2022/08/19 06:46:33;;;;;;;9.02;5.20;;;28.90;99.90;;;;;;4998279;28;20220;-86
2022/08/19 06:49:00;;;;;;;7.88;4.97;;;28.70;99.90;;;;;;4998275;28;20242;-86
2022/08/19 06:51:25;;;;;;;11.30;5.75;;;29.10;99.90;;;;;;5014411;28;20610;-86
2022/08/19 06:53:54;;;;;;;8.30;4.88;;;29.20;99.90;;;;;;5015265;28;20179;-86
2022/08/19 06:56:24;;;;;;;8.75;5.63;;;28.70;99.90;;;;;;5015933;28;20226;-86
2022/08/19 06:58:52;;;;;;;8.80;5.90;;;28.50;99.90;;;;;;5005173;28;20343;-83
2022/08/19 07:01:19;;;;;;;8.60;6.00;;;29.70;99.90;;;;;;4994710;28;20266;-87
2022/08/19 07:03:46;;;;;;;7.70;5.40;;;30.70;99.90;;;;;;5004902;28;20630;-87
2022/08/19 07:06:17;;;;;;;14.32;6.18;;;31.90;99.90;;;;;;5014379;28;20806;-86
2022/08/19 07:08:46;;;;;;;8.43;5.88;;;31.60;99.90;;;;;;5005053;28;20211;-86
2022/08/19 07:11:17;;;;;;;11.13;5.95;;;31.50;99.90;;;;;;4994451;28;20571;-86
2022/08/19 07:13:44;;;;;;;9.25;5.35;;;31.90;99.90;;;;;;4994524;28;20271;-87
2022/08/19 07:16:13;;;;;;;8.75;5.97;;;31.60;99.90;;;;;;4994508;28;20234;-86
2022/08/19 07:18:39;;;;;;;11.05;6.32;;;31.60;99.90;;;;;;4996493;28;20266;-86
2022/08/19 07:21:15;;;;;;;9.32;6.05;;;33.00;99.90;;;;;;4981025;28;20191;-87
2022/08/19 07:23:41;;;;;;;10.02;5.30;;;33.00;99.90;;;;;;5015093;28;20619;-88
2022/08/19 07:26:13;;;;;;;11.13;5.90;;;32.30;99.90;;;;;;5002572;28;20219;-89
2022/08/19 07:28:40;;;;;;;7.38;5.38;;;33.10;99.90;;;;;;5010776;28;20215;-89
2022/08/19 07:31:14;;;;;;;8.45;5.82;;;33.40;99.90;;;;;;4981884;28;20298;-88
2022/08/19 07:33:42;;;;;;;10.50;6.57;;;34.00;99.90;;;;;;5015113;28;20221;-88
2022/08/19 07:36:11;;;;;;;13.65;6.85;;;34.60;99.90;;;;;;4982889;28;20175;-90
2022/08/19 07:38:39;;;;;;;8.93;6.32;;;34.00;99.90;;;;;;5014709;28;20195;-90
2022/08/19 07:41:05;;;;;;;11.95;6.97;;;34.10;99.90;;;;;;4996058;28;20610;-89
2022/08/19 07:43:31;;;;;;;8.57;7.10;;;34.40;99.90;;;;;;4990082;28;20218;-87
2022/08/19 07:45:57;;;;;;;10.88;7.20;;;33.70;99.90;;;;;;4986295;28;20223;-89
2022/08/19 07:48:27;;;;;;;11.80;7.00;;;33.60;99.90;;;;;;4978079;28;20238;-88
2022/08/19 07:50:56;;;;;;;10.57;7.20;;;32.80;99.90;;;;;;4971662;28;20180;-89
2022/08/19 07:53:24;;;;;;;10.82;7.15;;;32.60;99.90;;;;;;4987144;28;20180;-87
2022/08/19 07:55:50;;;;;;;10.63;7.10;;;33.10;99.90;;;;;;4990722;28;20699;-87
2022/08/19 07:58:20;;;;;;;12.88;7.47;;;32.30;99.90;;;;;;5014103;28;20207;-87
2022/08/19 08:00:49;;;;;;;11.48;7.85;;;31.80;99.90;;;;;;4994013;28;20245;-88
2022/08/19 08:03:17;;;;;;;9.88;7.13;;;32.30;99.90;;;;;;4997199;28;20215;-88
2022/08/19 08:10:57;;;;;;;11.27;7.68;;;32.60;99.90;;;;;;5014442;28;20211;-89
2022/08/19 08:13:24;;;;;;;12.15;8.95;;;32.70;99.90;;;;;;4980705;28;20215;-89
2022/08/19 08:15:49;;;;;;;13.88;8.45;;;34.10;99.90;;;;;;4971674;28;20299;-89
2022/08/19 08:18:15;;;;;;;13.82;8.73;;;35.20;99.90;;;;;;4945619;28;20294;-88
2022/08/19 08:20:41;;;;;;;11.80;8.20;;;35.80;99.90;;;;;;4985925;28;20191;-90
2022/08/19 08:23:22;;;;;;;15.90;9.27;;;33.40;99.90;;;;;;4977608;28;20573;-91
2022/08/19 08:25:48;;;;;;;16.27;9.35;;;33.50;99.90;;;;;;4951541;28;20701;-90
2022/08/19 08:28:16;;;;;;;14.82;9.95;;;32.70;99.90;;;;;;4979325;28;20247;-91
2022/08/19 08:30:43;;;;;;;14.52;10.07;;;33.00;99.90;;;;;;4996560;28;20238;-89
2022/08/19 08:33:09;;;;;;;15.90;10.20;;;32.80;99.90;;;;;;4978712;28;20987;-89
2022/08/19 08:35:36;;;;;;;13.82;9.85;;;32.30;99.90;;;;;;5014221;28;20234;-89
2022/08/19 08:38:04;;;;;;;14.65;10.57;;;32.10;99.90;;;;;;4996571;28;20306;-88
2022/08/19 08:40:42;;;;;;;19.20;11.57;;;33.00;99.90;;;;;;4996477;28;20651;-90
2022/08/19 08:43:11;;;;;;;17.20;11.48;;;33.00;99.90;;;;;;5011305;28;20223;-89
2022/08/19 08:45:43;;;;;;;15.68;9.70;;;33.00;99.90;;;;;;5011392;28;20236;-90
2022/08/19 08:48:41;;;;;;;16.00;9.48;;;33.70;99.90;;;;;;5013386;28;20253;-90
2022/08/19 08:51:16;;;;;;;13.20;8.82;;;34.10;99.90;;;;;;4993502;28;20195;-90
2022/08/19 08:53:45;;;;;;;14.55;10.50;;;33.50;99.90;;;;;;5005070;28;20543;-91
2022/08/19 08:56:12;;;;;;;18.77;10.15;;;33.70;99.90;;;;;;5012684;28;20266;-91
2022/08/19 08:59:26;;;;;;;13.73;9.15;;;34.80;99.90;;;;;;5013313;28;20239;-92
2022/08/19 09:01:52;;;;;;;15.52;8.55;;;35.50;99.90;;;;;;4992625;28;20245;-91
2022/08/19 09:04:18;;;;;;;12.63;8.52;;;34.10;99.90;;;;;;4978719;28;20243;-90
2022/08/19 09:06:51;;;;;;;15.52;9.13;;;33.90;99.90;;;;;;4962505;28;20221;-91
2022/08/19 09:09:23;;;;;;;13.65;8.60;;;33.10;99.90;;;;;;4993684;28;20234;-87
2022/08/19 09:11:53;;;;;;;10.45;6.63;;;32.10;99.90;;;;;;5000082;28;20210;-89
2022/08/19 09:14:22;;;;;;;14.75;9.15;;;32.10;99.90;;;;;;5012556;28;20231;-87
2022/08/19 09:16:49;;;;;;;10.45;7.78;;;32.60;99.90;;;;;;4999113;28;20555;-88
2022/08/19 09:19:17;;;;;;;13.50;7.72;;;33.20;99.90;;;;;;4960865;28;20208;-90
2022/08/19 09:21:43;;;;;;;11.85;6.72;;;33.60;99.90;;;;;;4993893;28;20223;-87
2022/08/19 09:24:09;;;;;;;10.82;6.70;;;34.20;99.90;;;;;;4991709;28;20189;-87
2022/08/19 09:26:35;;;;;;;14.80;8.07;;;33.80;99.90;;;;;;4996665;28;20290;-87
2022/08/19 09:29:04;;;;;;;10.30;6.88;;;33.50;99.90;;;;;;4995270;28;20646;-86
2022/08/19 09:31:32;;;;;;;14.77;7.63;;;34.00;99.90;;;;;;4999764;28;20219;-86
2022/08/19 09:33:59;;;;;;;11.25;7.47;;;34.50;99.90;;;;;;4992152;28;20214;-85
2022/08/19 09:36:28;;;;;;;9.07;6.80;;;35.10;99.90;;;;;;4980952;28;20207;-87
2022/08/19 09:38:55;;;;;;;11.43;6.85;;;35.60;99.90;;;;;;5012107;28;20225;-87
2022/08/19 09:41:24;;;;;;;11.85;7.38;;;34.60;99.90;;;;;;4986925;28;20203;-88
2022/08/19 09:43:55;;;;;;;14.68;7.60;;;35.10;99.90;;;;;;4992098;28;20243;-87
2022/08/19 09:46:23;;;;;;;16.50;7.88;;;35.00;99.90;;;;;;4995951;28;20281;-88
2022/08/19 09:48:51;;;;;;;9.38;6.35;;;33.70;99.90;;;;;;4996407;28;20231;-89
2022/08/19 09:51:20;;;;;;;10.43;7.60;;;32.70;99.90;;;;;;5002483;28;20639;-88
2022/08/19 09:53:49;;;;;;;13.23;7.28;;;32.80;99.90;;;;;;5016625;28;20939;-87
2022/08/19 09:56:16;;;;;;;10.93;6.93;;;32.40;99.90;;;;;;4999582;28;20222;-89
2022/08/19 09:58:42;;;;;;;11.55;6.90;;;33.40;99.90;;;;;;5009319;28;20216;-88
2022/08/19 10:01:08;;;;;;;9.63;6.55;;;33.60;99.90;;;;;;4980361;28;20208;-88
2022/08/19 10:03:36;;;;;;;14.68;6.53;;;33.50;99.90;;;;;;4979967;28;20212;-89
2022/08/19 10:06:04;;;;;;;14.30;8.35;;;33.80;99.90;;;;;;4996495;28;20696;-88
2022/08/19 10:08:34;;;;;;;11.15;6.30;;;34.20;99.90;;;;;;5015328;28;20212;-87
2022/08/19 10:11:01;;;;;;;15.25;6.25;;;34.10;99.90;;;;;;5015502;28;20302;-86
2022/08/19 10:13:30;;;;;;;18.00;8.68;;;34.60;99.90;;;;;;4982483;28;20230;-87
2022/08/19 10:16:04;;;;;;;9.77;5.95;;;33.00;99.90;;;;;;5015201;28;20294;-87
2022/08/19 10:18:30;;;;;;;12.68;6.13;;;33.50;99.90;;;;;;5015322;28;20211;-87
2022/08/19 10:21:09;;;;;;;8.48;5.53;;;33.30;99.90;;;;;;4981916;28;20184;-86
2022/08/19 10:23:40;;;;;;;9.32;6.50;;;33.70;99.90;;;;;;5015274;28;20188;-87
2022/08/19 10:26:06;;;;;;;11.20;6.40;;;33.40;99.90;;;;;;4979041;28;20730;-87
2022/08/19 10:28:39;;;;;;;10.52;5.68;;;33.70;99.90;;;;;;5008696;28;20262;-87
2022/08/19 10:31:07;;;;;;;9.02;6.13;;;33.30;99.90;;;;;;5014920;28;20565;-86
2022/08/19 10:33:34;;;;;;;9.52;5.72;;;32.40;99.90;;;;;;5016055;28;20219;-87
2022/08/19 10:36:02;;;;;;;11.77;6.20;;;31.60;99.90;;;;;;5029444;28;20206;-85
2022/08/19 10:38:28;;;;;;;11.15;6.03;;;29.80;99.90;;;;;;5016315;28;20214;-86
2022/08/19 10:40:54;;;;;;;8.50;5.57;;;29.20;99.90;;;;;;4982272;28;20695;-87
2022/08/19 10:43:20;;;;;;;8.85;6.25;;;28.80;99.90;;;;;;4998505;28;20211;-86
2022/08/19 10:45:54;;;;;;;8.38;6.18;;;28.90;99.90;;;;;;4998580;28;20255;-87
2022/08/19 10:48:20;;;;;;;12.65;6.70;;;29.00;99.90;;;;;;4998544;28;20234;-86
2022/08/19 10:53:30;;;;;;;7.97;5.43;;;28.70;99.90;;;;;;4995358;28;20223;-86
2022/08/19 10:58:41;;;;;;;10.43;5.28;;;28.90;99.90;;;;;;4984681;28;20211;-87
2022/08/19 11:01:07;;;;;;;9.25;6.13;;;28.80;99.90;;;;;;4971742;28;20227;-87
2022/08/19 11:03:33;;;;;;;9.95;5.78;;;28.10;99.90;;;;;;4988676;28;20211;-87
2022/08/19 11:06:00;;;;;;;10.13;6.28;;;27.60;99.90;;;;;;4994650;28;20544;-87
2022/08/19 11:08:26;;;;;;;8.88;6.20;;;27.90;99.90;;;;;;4979246;28;20223;-86
2022/08/19 11:10:56;;;;;;;9.85;6.70;;;28.30;99.90;;;;;;4978351;28;20584;-86
2022/08/19 11:13:23;;;;;;;10.05;6.28;;;28.20;99.90;;;;;;4985528;28;20211;-86
2022/08/19 11:16:04;;;;;;;10.48;6.05;;;28.50;99.90;;;;;;4997696;28;20289;-85
2022/08/19 11:18:30;;;;;;;8.90;5.38;;;28.60;99.90;;;;;;5013942;28;20207;-86
2022/08/19 11:21:05;;;;;;;9.80;5.90;;;28.80;99.90;;;;;;4977183;28;20192;-86
2022/08/19 11:23:31;;;;;;;8.85;5.88;;;28.50;99.90;;;;;;4978817;28;20188;-86
2022/08/19 11:25:57;;;;;;;9.07;5.38;;;28.10;99.90;;;;;;4978129;28;20262;-87
2022/08/19 11:28:23;;;;;;;8.73;4.93;;;27.50;99.90;;;;;;4997686;28;20726;-88
2022/08/19 11:30:49;;;;;;;13.43;5.07;;;27.30;99.90;;;;;;4980432;28;20204;-87
2022/08/19 11:33:14;;;;;;;11.43;5.45;;;27.20;99.90;;;;;;4988662;28;20208;-87
2022/08/19 11:35:40;;;;;;;6.40;4.55;;;26.70;99.90;;;;;;4995089;28;20555;-85
2022/08/19 11:38:06;;;;;;;6.22;4.57;;;26.30;99.90;;;;;;4994162;28;20256;-86
2022/08/19 11:40:33;;;;;;;6.85;4.70;;;26.30;99.90;;;;;;4997161;28;21951;-85
2022/08/19 11:42:58;;;;;;;6.25;4.45;;;26.00;99.90;;;;;;4978250;28;20575;-85
2022/08/19 11:45:27;;;;;;;8.60;4.78;;;26.10;99.90;;;;;;4980358;28;20237;-84
2022/08/19 11:47:54;;;;;;;6.32;4.18;;;26.10;99.90;;;;;;4997115;28;20176;-85
2022/08/19 11:50:20;;;;;;;7.88;4.70;;;26.10;99.90;;;;;;5013668;28;20172;-83
2022/08/19 11:52:46;;;;;;;8.07;4.53;;;26.40;99.90;;;;;;4980550;28;20214;-83
2022/08/19 11:55:13;;;;;;;8.10;4.93;;;26.30;99.90;;;;;;5012882;28;20211;-84
2022/08/19 11:57:40;;;;;;;8.07;5.18;;;26.50;99.90;;;;;;5001651;28;20227;-87
2022/08/19 12:00:07;;;;;;;9.18;4.95;;;26.50;99.90;;;;;;4982101;28;20543;-86
2022/08/19 12:02:33;;;;;;;9.82;5.10;;;26.90;99.90;;;;;;5013330;28;20184;-86
2022/08/19 12:05:02;;;;;;;7.55;6.10;;;26.80;99.90;;;;;;4964792;28;20298;-86
2022/08/19 12:07:28;;;;;;;8.98;5.55;;;27.20;99.90;;;;;;4969321;28;20552;-85
2022/08/19 12:09:54;;;;;;;10.30;5.55;;;27.10;99.90;;;;;;4993311;28;20224;-86
2022/08/19 12:12:20;;;;;;;11.77;6.65;;;26.30;99.90;;;;;;4988158;28;20221;-87
2022/08/19 12:14:46;;;;;;;8.95;5.38;;;25.60;99.90;;;;;;4981730;28;20537;-87
2022/08/19 12:17:13;;;;;;;8.80;6.15;;;25.60;99.90;;;;;;4989550;28;20824;-86
2022/08/19 12:19:39;;;;;;;6.68;5.20;;;25.40;99.90;;;;;;4998029;28;20216;-86
2022/08/19 12:22:05;;;;;;;8.32;4.78;;;25.70;99.90;;;;;;4982072;28;20268;-88
2022/08/19 12:24:32;;;;;;;7.03;4.63;;;25.90;99.90;;;;;;4980893;28;20219;-87
2022/08/19 12:27:01;;;;;;;8.73;4.88;;;25.90;99.90;;;;;;5014594;28;20695;-87
2022/08/19 12:29:29;;;;;;;8.75;5.22;;;25.90;99.90;;;;;;5013418;28;20203;-88
2022/08/19 12:32:02;;;;;;;9.50;4.85;;;25.60;99.90;;;;;;5013137;28;20215;-88
2022/08/19 12:34:29;;;;;;;9.25;5.22;;;25.50;99.90;;;;;;5004715;28;20674;-88
2022/08/19 12:37:01;;;;;;;10.13;5.70;;;25.50;99.90;;;;;;5007475;28;20666;-88
2022/08/19 12:39:26;;;;;;;9.38;4.10;;;25.40;99.90;;;;;;5008617;28;20713;-89
2022/08/19 12:41:52;;;;;;;9.40;4.25;;;25.40;99.90;;;;;;4997164;28;20183;-88
2022/08/19 12:44:18;;;;;;;7.32;4.43;;;25.20;99.90;;;;;;4980945;28;20314;-86
2022/08/19 12:46:44;;;;;;;7.72;4.60;;;25.20;99.90;;;;;;4980172;28;20258;-87
2022/08/19 12:49:10;;;;;;;6.95;4.70;;;25.40;99.90;;;;;;4996887;28;20222;-88
2022/08/19 12:51:36;;;;;;;7.03;4.80;;;25.50;99.90;;;;;;5013190;28;20226;-88
2022/08/19 12:54:03;;;;;;;9.18;4.82;;;25.70;99.90;;;;;;5013195;28;20247;-88
2022/08/19 12:56:29;;;;;;;9.10;5.60;;;26.30;99.90;;;;;;5013226;28;20201;-88
2022/08/19 12:58:55;;;;;;;8.70;5.40;;;26.50;99.90;;;;;;4990243;28;20263;-87
2022/08/19 13:01:21;;;;;;;11.10;5.85;;;26.50;99.90;;;;;;4980006;28;20215;-88
2022/08/19 13:03:47;;;;;;;10.15;6.20;;;26.10;99.90;;;;;;4978964;28;20222;-87
2022/08/19 13:06:13;;;;;;;9.93;5.25;;;26.10;99.90;;;;;;4966184;28;20215;-88